Time;durP1;ratioP1;P1;durP2;ratioP2;P2;SDS_P1;SDS_P2;PMS_P1;PMS_P2;Temp;Humidity;BMP_temperature;BMP_pressure;BME280_temperature;BME280_humidity;BME280_pressure;Samples;Min_cycle;Max_cycle;Signal;HPM_P1;HPM_P2
2021/04/01 00:02:18;;;;;;;3.72;1.50;;;25.30;36.10;;;;;;5053677;28;20028;-70
2021/04/01 00:04:44;;;;;;;2.75;1.23;;;25.40;36.20;;;;;;5072394;28;20081;-67
2021/04/01 00:07:13;;;;;;;2.63;1.13;;;25.30;36.20;;;;;;5077563;28;20028;-66
2021/04/01 00:09:38;;;;;;;3.20;1.20;;;25.30;36.20;;;;;;5085937;28;20368;-67
2021/04/01 00:12:04;;;;;;;3.20;1.30;;;25.30;36.20;;;;;;5085133;28;20029;-69
2021/04/01 00:14:33;;;;;;;2.83;1.60;;;25.30;36.20;;;;;;5066208;28;20028;-66
2021/04/01 00:16:59;;;;;;;2.33;1.40;;;25.30;36.10;;;;;;5061925;28;20028;-64
2021/04/01 00:19:25;;;;;;;2.47;1.10;;;25.30;36.10;;;;;;5074848;28;20469;-65
2021/04/01 00:21:50;;;;;;;2.85;1.40;;;25.40;36.10;;;;;;5077793;28;20028;-66
2021/04/01 00:24:16;;;;;;;2.60;1.30;;;25.30;36.00;;;;;;5078415;28;20039;-71
2021/04/01 00:26:42;;;;;;;2.45;1.38;;;25.30;36.20;;;;;;5086050;28;20024;-72
2021/04/01 00:29:07;;;;;;;2.90;1.38;;;25.40;36.20;;;;;;5079451;28;20024;-70
2021/04/01 00:31:33;;;;;;;1.88;1.20;;;25.40;36.10;;;;;;5082923;28;20036;-70
2021/04/01 00:33:58;;;;;;;2.63;1.40;;;25.30;36.10;;;;;;5082221;28;20083;-71
2021/04/01 00:36:24;;;;;;;1.83;1.20;;;25.30;36.10;;;;;;5064480;28;20147;-70
2021/04/01 00:38:50;;;;;;;2.72;1.20;;;25.30;36.20;;;;;;5087263;28;20039;-70
2021/04/01 00:41:15;;;;;;;3.85;1.40;;;25.30;36.10;;;;;;5085347;28;20145;-70
2021/04/01 00:43:41;;;;;;;2.97;1.20;;;25.20;36.10;;;;;;5065029;28;20032;-71
2021/04/01 00:46:06;;;;;;;1.80;1.00;;;25.20;36.10;;;;;;5083665;28;20395;-72
2021/04/01 00:48:32;;;;;;;2.83;1.20;;;25.20;36.10;;;;;;5079896;28;20095;-71
2021/04/01 00:50:58;;;;;;;2.22;1.20;;;25.20;36.20;;;;;;5074463;28;20040;-70
2021/04/01 00:53:23;;;;;;;2.40;1.17;;;25.10;36.10;;;;;;5081151;28;20024;-71
2021/04/01 00:55:49;;;;;;;1.75;1.10;;;25.10;36.10;;;;;;5071075;28;20063;-70
2021/04/01 00:58:15;;;;;;;2.38;1.02;;;25.10;36.10;;;;;;5087022;28;20036;-70
2021/04/01 01:00:41;;;;;;;3.03;1.20;;;25.10;36.20;;;;;;5066452;28;20036;-70
2021/04/01 01:03:07;;;;;;;2.30;1.20;;;25.10;36.20;;;;;;5073336;28;20437;-72
2021/04/01 01:05:35;;;;;;;2.45;1.30;;;25.00;36.10;;;;;;5070441;28;20017;-71
2021/04/01 01:08:02;;;;;;;2.38;1.15;;;25.00;36.20;;;;;;5086468;28;20031;-71
2021/04/01 01:10:31;;;;;;;1.50;1.00;;;25.00;36.20;;;;;;5087085;28;20098;-71
2021/04/01 01:13:01;;;;;;;1.88;1.33;;;25.00;36.20;;;;;;5083656;28;20032;-71
2021/04/01 01:15:28;;;;;;;2.80;1.08;;;25.00;36.20;;;;;;5058567;28;20033;-71
2021/04/01 01:17:55;;;;;;;2.22;1.10;;;24.90;36.20;;;;;;5083071;28;20039;-70
2021/04/01 01:20:23;;;;;;;2.00;1.20;;;24.90;36.20;;;;;;5081869;28;20114;-70
2021/04/01 01:22:50;;;;;;;1.70;1.00;;;24.90;36.30;;;;;;5064262;28;20028;-71
2021/04/01 01:25:21;;;;;;;1.75;1.10;;;24.90;36.30;;;;;;5062766;28;20479;-70
2021/04/01 01:27:47;;;;;;;2.22;1.00;;;24.80;36.30;;;;;;5072104;28;20040;-71
2021/04/01 01:30:18;;;;;;;2.92;1.25;;;24.80;36.80;;;;;;5085907;28;20154;-71
2021/04/01 01:32:47;;;;;;;1.80;1.00;;;24.80;36.30;;;;;;5084205;28;20027;-71
2021/04/01 01:35:19;;;;;;;2.08;1.10;;;24.80;36.30;;;;;;5071544;28;20123;-71
2021/04/01 01:37:56;;;;;;;1.83;1.08;;;24.80;36.40;;;;;;5079884;28;20035;-71
2021/04/01 01:40:23;;;;;;;1.83;1.05;;;24.80;36.40;;;;;;5084099;28;20039;-71
2021/04/01 01:42:50;;;;;;;1.92;1.00;;;24.70;36.40;;;;;;5070943;28;20039;-70
2021/04/01 01:45:17;;;;;;;1.80;1.10;;;24.70;36.40;;;;;;5080755;28;20146;-71
2021/04/01 01:47:42;;;;;;;2.28;1.20;;;24.70;36.50;;;;;;5081245;28;20020;-71
2021/04/01 01:50:11;;;;;;;2.33;1.17;;;24.60;36.40;;;;;;5069189;28;20040;-71
2021/04/01 01:52:38;;;;;;;1.80;1.00;;;24.60;36.40;;;;;;5080026;28;20027;-71
2021/04/01 01:55:06;;;;;;;2.35;1.20;;;24.60;36.50;;;;;;5080886;28;20735;-71
2021/04/01 01:57:35;;;;;;;2.30;1.10;;;24.60;36.60;;;;;;5080055;28;20157;-71
2021/04/01 02:00:04;;;;;;;1.80;1.10;;;24.60;36.50;;;;;;5084077;28;20047;-71
2021/04/01 02:02:30;;;;;;;1.77;1.10;;;24.60;36.60;;;;;;5060605;28;20063;-71
2021/04/01 02:04:55;;;;;;;1.63;0.90;;;24.60;36.60;;;;;;5080993;28;20432;-71
2021/04/01 02:07:21;;;;;;;2.05;1.10;;;24.50;36.60;;;;;;5077006;28;20124;-72
2021/04/01 02:09:47;;;;;;;1.63;1.10;;;24.50;36.70;;;;;;5080113;28;20043;-72
2021/04/01 02:12:16;;;;;;;2.30;1.10;;;24.50;36.60;;;;;;5086123;28;20016;-71
2021/04/01 02:14:43;;;;;;;1.88;1.08;;;24.50;36.70;;;;;;5083241;28;20028;-72
2021/04/01 02:17:10;;;;;;;1.55;1.10;;;24.50;36.70;;;;;;5085282;28;20109;-71
2021/04/01 02:19:36;;;;;;;1.73;1.00;;;24.40;36.70;;;;;;5060042;28;20036;-71
2021/04/01 02:22:02;;;;;;;1.60;1.10;;;24.40;37.20;;;;;;5078831;28;20028;-71
2021/04/01 02:24:28;;;;;;;2.45;1.00;;;24.40;36.80;;;;;;5081839;28;20056;-72
2021/04/01 02:26:56;;;;;;;2.03;1.15;;;24.40;36.70;;;;;;5069581;28;20024;-71
2021/04/01 02:29:23;;;;;;;1.00;0.80;;;24.30;37.20;;;;;;5083621;28;20385;-71
2021/04/01 02:31:49;;;;;;;1.98;1.00;;;24.30;36.70;;;;;;5083246;28;20136;-71
2021/04/01 02:34:16;;;;;;;1.60;0.82;;;24.30;36.80;;;;;;5080402;28;20063;-72
2021/04/01 02:36:42;;;;;;;1.80;1.08;;;24.30;36.80;;;;;;5065132;28;20348;-71
2021/04/01 02:39:08;;;;;;;1.40;1.00;;;24.30;36.80;;;;;;5084213;28;20110;-71
2021/04/01 02:41:34;;;;;;;1.60;0.90;;;24.30;36.80;;;;;;5082064;28;20103;-71
2021/04/01 02:44:00;;;;;;;1.17;0.85;;;24.30;36.80;;;;;;5066410;28;20028;-71
2021/04/01 02:46:26;;;;;;;1.40;1.00;;;24.20;36.80;;;;;;5071490;28;20012;-71
2021/04/01 02:48:51;;;;;;;1.73;1.00;;;24.20;36.80;;;;;;5080375;28;20043;-71
2021/04/01 02:51:17;;;;;;;1.45;0.95;;;24.20;36.80;;;;;;5070456;28;20099;-71
2021/04/01 02:53:42;;;;;;;1.48;1.10;;;24.20;36.90;;;;;;5084565;28;20020;-71
2021/04/01 02:56:08;;;;;;;1.85;1.05;;;24.20;36.90;;;;;;5075681;28;20038;-72
2021/04/01 02:58:34;;;;;;;1.98;1.10;;;24.10;36.80;;;;;;5074307;28;20463;-71
2021/04/01 03:01:00;;;;;;;1.45;1.00;;;24.10;36.90;;;;;;5079152;28;20130;-71
2021/04/01 03:06:18;;;;;;;1.85;1.02;;;24.10;36.90;;;;;;5078768;28;20036;-71
2021/04/01 03:08:44;;;;;;;1.27;0.90;;;24.10;36.90;;;;;;5076914;28;20097;-71
2021/04/01 03:11:10;;;;;;;1.48;0.90;;;24.10;36.90;;;;;;5048616;28;20099;-71
2021/04/01 03:13:35;;;;;;;1.25;0.90;;;24.10;37.00;;;;;;5084661;28;20479;-71
2021/04/01 03:16:01;;;;;;;1.55;0.98;;;24.10;37.00;;;;;;5083680;28;20039;-71
2021/04/01 03:18:27;;;;;;;2.88;1.00;;;24.00;36.90;;;;;;5086095;28;20032;-71
2021/04/01 03:20:52;;;;;;;1.42;0.95;;;24.00;36.90;;;;;;5090759;28;20048;-72
2021/04/01 03:23:18;;;;;;;1.67;1.00;;;24.00;37.00;;;;;;5075763;28;20558;-71
2021/04/01 03:25:44;;;;;;;1.38;0.95;;;24.00;37.00;;;;;;5071699;28;20070;-71
2021/04/01 03:28:11;;;;;;;1.48;0.95;;;24.00;37.00;;;;;;5073684;28;20462;-71
2021/04/01 03:30:41;;;;;;;1.95;1.00;;;24.00;37.00;;;;;;5069197;28;20934;-71
2021/04/01 03:33:07;;;;;;;1.30;0.90;;;23.90;37.00;;;;;;5083270;28;20107;-71
2021/04/01 03:35:32;;;;;;;1.58;0.90;;;23.90;37.00;;;;;;5057591;28;20033;-72
2021/04/01 03:38:01;;;;;;;1.50;0.90;;;23.90;37.00;;;;;;5088037;28;20027;-72
2021/04/01 03:40:27;;;;;;;1.27;0.90;;;23.90;37.00;;;;;;5089723;28;20489;-71
2021/04/01 03:42:53;;;;;;;1.95;1.00;;;23.90;37.00;;;;;;5087601;28;20099;-71
2021/04/01 03:45:19;;;;;;;1.52;1.00;;;23.90;37.00;;;;;;5061082;28;20123;-71
2021/04/01 03:47:45;;;;;;;1.60;1.10;;;23.90;37.10;;;;;;5086791;28;20024;-72
2021/04/01 03:50:13;;;;;;;1.95;1.08;;;23.90;37.10;;;;;;5073045;28;20028;-71
2021/04/01 03:52:40;;;;;;;1.13;0.80;;;23.90;37.10;;;;;;5083842;28;20024;-71
2021/04/01 03:57:44;;;;;;;2.03;1.10;;;23.90;37.10;;;;;;5081710;28;20044;-71
2021/04/01 04:00:14;;;;;;;2.42;1.00;;;23.80;37.10;;;;;;5069409;28;20123;-71
2021/04/01 04:02:52;;;;;;;1.45;1.00;;;23.80;37.20;;;;;;5074862;28;20096;-71
2021/04/01 04:16:19;;;;;;;1.45;0.90;;;23.70;37.10;;;;;;5084523;28;20038;-72
2021/04/01 04:18:45;;;;;;;2.05;1.10;;;23.70;37.10;;;;;;5090939;28;20514;-71
2021/04/01 04:21:11;;;;;;;1.98;1.00;;;23.70;37.20;;;;;;5076293;28;20127;-72
2021/04/01 04:23:40;;;;;;;1.67;1.00;;;23.70;37.20;;;;;;5070403;28;20130;-71
2021/04/01 04:26:06;;;;;;;1.45;1.00;;;23.70;37.20;;;;;;5062287;28;20032;-72
2021/04/01 04:28:36;;;;;;;1.15;0.90;;;23.70;37.20;;;;;;5084596;28;20128;-71
2021/04/01 04:31:02;;;;;;;1.40;0.90;;;23.70;37.20;;;;;;5086128;28;20386;-71
2021/04/01 04:33:28;;;;;;;1.98;0.98;;;23.70;37.20;;;;;;5075393;28;20025;-71
2021/04/01 04:35:54;;;;;;;1.40;0.90;;;23.70;37.20;;;;;;5078908;28;20324;-71
2021/04/01 04:38:20;;;;;;;1.83;1.00;;;23.70;37.20;;;;;;5077617;28;20078;-71
2021/04/01 04:40:46;;;;;;;1.42;0.95;;;23.60;37.20;;;;;;5090415;28;20016;-71
2021/04/01 04:43:12;;;;;;;1.80;1.10;;;23.70;37.30;;;;;;5084509;28;20475;-71
2021/04/01 04:45:38;;;;;;;1.95;0.90;;;23.60;37.30;;;;;;5079283;28;20651;-71
2021/04/01 04:48:04;;;;;;;1.25;0.93;;;23.60;37.20;;;;;;5084069;28;20033;-73
2021/04/01 04:50:29;;;;;;;1.58;1.10;;;23.60;37.30;;;;;;5081266;28;20119;-71
2021/04/01 04:52:55;;;;;;;1.42;0.98;;;23.60;37.30;;;;;;5079433;28;20466;-71
2021/04/01 04:55:21;;;;;;;1.77;1.10;;;23.60;37.30;;;;;;5078451;28;20040;-71
2021/04/01 05:05:42;;;;;;;2.25;1.05;;;23.60;37.30;;;;;;5074409;28;20069;-71
2021/04/01 05:08:07;;;;;;;1.45;1.00;;;23.60;37.30;;;;;;5079176;28;20439;-71
2021/04/01 05:10:33;;;;;;;1.92;1.00;;;23.60;37.30;;;;;;5083129;28;20020;-71
2021/04/01 05:13:08;;;;;;;1.70;0.90;;;23.60;37.30;;;;;;5089000;28;20065;-71
2021/04/01 05:15:36;;;;;;;2.30;1.10;;;23.50;37.20;;;;;;5083398;28;20108;-71
2021/04/01 05:18:34;;;;;;;1.70;1.15;;;23.50;37.10;;;;;;5084502;28;20221;-71
2021/04/01 05:20:55;;;;;;;1.73;1.05;;;23.50;37.10;;;;;;5069762;28;20048;-71
2021/04/01 05:25:52;;;;;;;2.30;1.20;;;23.50;37.00;;;;;;5082014;28;20032;-72
2021/04/01 05:28:39;;;;;;;1.85;1.20;;;23.50;37.00;;;;;;5088225;28;20438;-71
2021/04/01 05:31:06;;;;;;;2.35;1.40;;;23.40;37.00;;;;;;5086799;28;20032;-71
2021/04/01 05:33:35;;;;;;;2.45;1.63;;;23.40;37.00;;;;;;5083175;28;20023;-71
2021/04/01 05:36:04;;;;;;;1.77;1.20;;;23.50;37.00;;;;;;5082978;28;20457;-71
2021/04/01 05:38:30;;;;;;;2.13;1.10;;;23.50;37.00;;;;;;5065622;28;20028;-71
2021/04/01 05:40:56;;;;;;;1.83;1.25;;;23.40;37.00;;;;;;5079725;28;20058;-72
2021/04/01 05:43:24;;;;;;;1.75;1.10;;;23.40;37.00;;;;;;5069625;28;20105;-71
2021/04/01 05:46:03;;;;;;;1.65;1.33;;;23.40;37.00;;;;;;5071041;28;20029;-71
2021/04/01 05:48:43;;;;;;;;;;;23.40;37.00;;;;;;5053580;28;20024;-71
2021/04/01 06:06:54;;;;;;;2.90;1.38;;;23.30;37.10;;;;;;5081142;28;20023;-71
2021/04/01 06:09:25;;;;;;;1.55;1.00;;;23.30;37.20;;;;;;5060742;28;20017;-72
2021/04/01 06:11:54;;;;;;;2.50;1.02;;;23.30;37.20;;;;;;5067614;28;20056;-73
2021/04/01 06:14:38;;;;;;;2.58;1.27;;;23.30;37.20;;;;;;5067817;28;20077;-73
2021/04/01 06:17:10;;;;;;;1.70;1.00;;;23.30;37.30;;;;;;5072379;28;20028;-73
2021/04/01 06:19:36;;;;;;;1.98;1.30;;;23.30;37.30;;;;;;5070509;28;20044;-71
2021/04/01 06:22:07;;;;;;;2.25;1.20;;;23.40;37.30;;;;;;5085996;28;20081;-71
2021/04/01 06:24:36;;;;;;;1.38;1.00;;;23.30;37.30;;;;;;5082867;28;20020;-71
2021/04/01 06:27:19;;;;;;;1.55;0.95;;;23.30;37.40;;;;;;5066247;28;20385;-72
2021/04/01 06:32:39;;;;;;;1.90;1.10;;;23.30;37.50;;;;;;5073959;28;20039;-70
2021/04/01 06:40:58;;;;;;;2.20;1.10;;;23.30;37.60;;;;;;5088348;28;20495;-71
2021/04/01 06:43:58;;;;;;;1.50;1.15;;;23.30;37.60;;;;;;5086365;28;20085;-72
2021/04/01 06:46:32;;;;;;;2.75;1.10;;;23.30;37.60;;;;;;5081541;28;20488;-70
2021/04/01 06:51:58;;;;;;;1.80;1.10;;;23.30;37.70;;;;;;5087685;28;20043;-70
2021/04/01 06:54:43;;;;;;;3.22;1.30;;;23.20;37.70;;;;;;5081507;28;20016;-70
2021/04/01 06:57:41;;;;;;;1.73;1.08;;;23.30;37.70;;;;;;5088175;28;20482;-71
2021/04/01 07:00:18;;;;;;;2.03;1.10;;;23.30;37.80;;;;;;5079571;28;20118;-70
2021/04/01 07:03:01;;;;;;;2.65;1.20;;;23.30;37.80;;;;;;5081336;28;20016;-70
2021/04/01 07:05:37;;;;;;;2.10;1.13;;;23.20;37.70;;;;;;5084968;28;20886;-70
2021/04/01 07:08:08;;;;;;;2.00;1.20;;;23.20;37.70;;;;;;5088032;28;20024;-71
2021/04/01 07:10:49;;;;;;;2.15;1.30;;;23.20;37.70;;;;;;5084792;28;20062;-69
2021/04/01 07:13:18;;;;;;;1.75;1.23;;;23.20;37.60;;;;;;5070838;28;20024;-70
2021/04/01 07:15:47;;;;;;;1.83;1.13;;;23.20;38.20;;;;;;5085828;28;20040;-70
2021/04/01 07:48:06;;;;;;;1.73;1.10;;;23.20;37.70;;;;;;5088289;28;20028;-70
2021/04/01 07:50:40;;;;;;;2.15;1.30;;;23.10;37.60;;;;;;5080578;28;20027;-69
2021/04/01 07:53:06;;;;;;;1.80;1.30;;;23.20;37.70;;;;;;5087792;28;20126;-69
2021/04/01 08:06:18;;;;;;;4.28;1.67;;;23.10;37.60;;;;;;5084694;28;20028;-69
2021/04/01 08:08:50;;;;;;;2.03;1.30;;;23.10;37.60;;;;;;5065929;28;20094;-70
2021/04/01 08:11:31;;;;;;;2.38;1.30;;;23.10;37.60;;;;;;5082000;28;20119;-69
2021/04/01 08:14:11;;;;;;;2.00;1.30;;;23.10;37.60;;;;;;5077543;28;20647;-69
2021/04/01 08:16:46;;;;;;;3.33;1.40;;;23.10;37.60;;;;;;5076374;28;20119;-70
2021/04/01 08:19:14;;;;;;;2.00;1.30;;;23.10;37.70;;;;;;5082826;28;20097;-69
2021/04/01 08:21:42;;;;;;;2.53;1.35;;;23.10;37.60;;;;;;5086903;28;20036;-70
2021/04/01 08:24:16;;;;;;;1.92;1.35;;;23.10;37.60;;;;;;5069017;28;20031;-70
2021/04/01 08:34:42;;;;;;;2.75;1.60;;;23.10;37.60;;;;;;5073657;28;20105;-69
2021/04/01 08:37:11;;;;;;;1.88;1.25;;;23.10;37.60;;;;;;5074947;28;20039;-70
2021/04/01 08:39:37;;;;;;;3.45;1.50;;;23.10;37.60;;;;;;5069109;28;20028;-70
2021/04/01 08:42:08;;;;;;;2.05;1.30;;;23.10;37.70;;;;;;5084514;28;20093;-70
2021/04/01 08:44:51;;;;;;;2.97;1.70;;;23.10;37.70;;;;;;5079221;28;20040;-69
2021/04/01 08:47:55;;;;;;;2.22;1.30;;;23.10;37.70;;;;;;5083130;28;20028;-69
2021/04/01 08:50:33;;;;;;;2.50;1.40;;;23.10;37.70;;;;;;5052779;28;20059;-70
2021/04/01 08:53:17;;;;;;;2.42;1.30;;;23.10;37.70;;;;;;5064881;28;20067;-71
2021/04/01 08:55:59;;;;;;;2.45;1.40;;;23.10;37.80;;;;;;5078952;28;20589;-70
2021/04/01 08:58:41;;;;;;;2.42;1.33;;;23.10;37.80;;;;;;5087233;28;20038;-69
2021/04/01 09:01:14;;;;;;;2.30;1.42;;;23.10;37.80;;;;;;5081301;28;20043;-70
2021/04/01 09:03:45;;;;;;;3.42;1.40;;;23.10;37.80;;;;;;5082586;28;20121;-69
2021/04/01 09:06:13;;;;;;;2.33;1.40;;;23.10;37.90;;;;;;5076656;28;20482;-70
2021/04/01 09:08:46;;;;;;;2.03;1.30;;;23.10;37.80;;;;;;5078777;28;20052;-69
2021/04/01 09:11:14;;;;;;;2.10;1.20;;;23.10;37.90;;;;;;5082071;28;20028;-69
2021/04/01 09:13:46;;;;;;;2.20;1.10;;;23.10;37.90;;;;;;5068535;28;20021;-70
2021/04/01 09:16:28;;;;;;;2.35;1.48;;;23.10;37.90;;;;;;5071136;28;20446;-69
2021/04/01 09:19:01;;;;;;;2.03;1.17;;;23.10;37.90;;;;;;5079197;28;20016;-70
2021/04/01 09:21:36;;;;;;;1.60;1.10;;;23.10;37.90;;;;;;5075504;28;20016;-70
2021/04/01 09:24:08;;;;;;;1.90;1.10;;;23.10;37.90;;;;;;5072957;28;20032;-69
2021/04/01 09:26:35;;;;;;;2.90;1.33;;;23.10;37.90;;;;;;5081550;28;20036;-69
2021/04/01 09:29:04;;;;;;;2.47;1.40;;;23.10;38.00;;;;;;5088902;28;20518;-70
2021/04/01 09:31:42;;;;;;;2.35;1.35;;;23.10;38.00;;;;;;5083571;28;20060;-70
2021/04/01 09:34:09;;;;;;;1.98;1.20;;;23.10;38.00;;;;;;5078980;28;20035;-70
2021/04/01 09:36:42;;;;;;;2.70;1.35;;;23.10;38.00;;;;;;5078126;28;20111;-69
2021/04/01 09:39:28;;;;;;;2.67;1.20;;;23.10;38.00;;;;;;5068677;28;20035;-70
2021/04/01 09:42:05;;;;;;;2.40;1.23;;;23.10;38.00;;;;;;5061908;28;20054;-70
2021/04/01 09:44:31;;;;;;;2.40;1.23;;;23.10;38.00;;;;;;5068929;28;20055;-70
2021/04/01 09:47:09;;;;;;;3.67;1.35;;;23.10;38.10;;;;;;5077700;28;20517;-71
2021/04/01 09:49:57;;;;;;;2.45;1.20;;;23.10;38.00;;;;;;5074789;28;20376;-70
2021/04/01 09:52:27;;;;;;;2.55;1.30;;;23.10;38.10;;;;;;5079448;28;20043;-69
2021/04/01 09:54:56;;;;;;;2.17;1.20;;;23.10;38.10;;;;;;5074714;28;20394;-69
2021/04/01 09:57:46;;;;;;;1.73;1.30;;;23.10;38.10;;;;;;5077295;28;20055;-69
2021/04/01 10:00:21;;;;;;;3.85;1.52;;;23.10;38.10;;;;;;5075195;28;20421;-71
2021/04/01 10:03:03;;;;;;;2.63;1.23;;;23.10;38.10;;;;;;5078812;28;20107;-70
2021/04/01 10:05:32;;;;;;;2.38;1.40;;;23.10;38.10;;;;;;5063915;28;20036;-69
2021/04/01 10:07:58;;;;;;;2.60;1.30;;;23.10;38.10;;;;;;5081035;28;20073;-70
2021/04/01 10:10:35;;;;;;;2.08;1.30;;;23.10;38.10;;;;;;5064866;28;20127;-70
2021/04/01 10:13:02;;;;;;;2.03;1.20;;;23.20;38.20;;;;;;5074611;28;20017;-69
2021/04/01 10:15:31;;;;;;;2.38;1.25;;;23.20;38.20;;;;;;5079849;28;20501;-70
2021/04/01 10:17:58;;;;;;;1.90;1.10;;;23.20;38.20;;;;;;5076740;28;20028;-71
2021/04/01 10:20:25;;;;;;;2.13;1.17;;;23.20;38.20;;;;;;5077290;28;20028;-70
2021/04/01 10:22:51;;;;;;;1.63;1.13;;;23.20;38.20;;;;;;5077608;28;20036;-70
2021/04/01 10:25:29;;;;;;;2.20;1.10;;;23.10;38.10;;;;;;5059293;28;20031;-70
2021/04/01 10:28:05;;;;;;;1.80;1.27;;;23.20;38.20;;;;;;5064012;28;20020;-70
2021/04/01 10:30:33;;;;;;;1.92;1.20;;;23.10;38.10;;;;;;5075755;28;20036;-69
2021/04/01 10:33:33;;;;;;;1.90;1.20;;;23.20;38.20;;;;;;5079006;28;20028;-69
2021/04/01 10:36:03;;;;;;;2.28;1.10;;;23.20;38.20;;;;;;5011671;28;20039;-70
2021/04/01 10:38:29;;;;;;;2.00;1.35;;;23.20;38.20;;;;;;5077859;28;20035;-71
2021/04/01 10:41:00;;;;;;;2.72;1.23;;;23.20;38.20;;;;;;5078757;28;20381;-70
2021/04/01 10:43:32;;;;;;;2.22;1.35;;;23.20;38.10;;;;;;5083376;28;20034;-69
2021/04/01 10:46:00;;;;;;;2.05;1.20;;;23.20;38.20;;;;;;5084894;28;20032;-70
2021/04/01 10:48:30;;;;;;;2.30;1.40;;;23.20;38.20;;;;;;5078577;28;20020;-68
2021/04/01 10:51:02;;;;;;;3.20;1.20;;;23.20;38.20;;;;;;5070570;28;20027;-70
2021/04/01 10:53:30;;;;;;;1.95;1.13;;;23.20;38.20;;;;;;5076300;28;20024;-70
2021/04/01 10:56:02;;;;;;;2.67;1.10;;;23.20;38.20;;;;;;5075807;28;20044;-70
2021/04/01 10:58:28;;;;;;;1.20;0.95;;;23.20;38.20;;;;;;5071612;28;20116;-69
2021/04/01 11:00:55;;;;;;;2.22;1.25;;;23.20;38.20;;;;;;5071262;28;20215;-68
2021/04/01 11:03:25;;;;;;;1.85;1.17;;;23.20;38.20;;;;;;5073463;28;20036;-68
2021/04/01 11:05:52;;;;;;;3.58;1.40;;;23.20;38.30;;;;;;5074034;28;20024;-72
2021/04/01 11:08:20;;;;;;;2.90;1.30;;;23.20;38.30;;;;;;5066157;28;20028;-71
2021/04/01 11:10:56;;;;;;;2.33;1.20;;;23.30;38.80;;;;;;5087644;28;20397;-69
2021/04/01 11:13:30;;;;;;;2.67;1.40;;;23.30;38.30;;;;;;5086346;28;20634;-70
2021/04/01 11:15:57;;;;;;;3.70;1.33;;;23.30;38.30;;;;;;5082034;28;20040;-70
2021/04/01 11:18:25;;;;;;;1.90;1.20;;;23.20;38.30;;;;;;5053753;28;20115;-68
2021/04/01 11:20:51;;;;;;;2.28;1.20;;;23.20;38.30;;;;;;5068652;28;20038;-70
2021/04/01 11:23:19;;;;;;;1.70;1.00;;;23.30;38.40;;;;;;5087554;28;20031;-69
2021/04/01 11:26:06;;;;;;;2.88;1.33;;;23.30;38.30;;;;;;5096179;28;20105;-69
2021/04/01 11:28:49;;;;;;;2.97;1.30;;;23.30;38.40;;;;;;5077628;28;20074;-68
2021/04/01 11:31:29;;;;;;;3.22;1.15;;;23.30;38.40;;;;;;5054750;28;20040;-68
2021/04/01 11:33:56;;;;;;;3.40;1.40;;;23.30;38.40;;;;;;5059591;28;20035;-69
2021/04/01 11:36:23;;;;;;;2.63;1.40;;;23.30;38.40;;;;;;5077085;28;20077;-70
2021/04/01 11:38:59;;;;;;;2.17;1.35;;;23.30;39.00;;;;;;5069533;28;20241;-69
2021/04/01 11:41:26;;;;;;;2.95;1.30;;;23.30;38.50;;;;;;5089336;28;20105;-69
2021/04/01 11:43:58;;;;;;;2.70;1.35;;;23.30;38.50;;;;;;5066974;28;20028;-69
2021/04/01 11:46:30;;;;;;;2.30;1.15;;;23.30;38.50;;;;;;5070294;28;20031;-69
2021/04/01 11:48:57;;;;;;;2.80;1.40;;;23.30;38.50;;;;;;5089891;28;20106;-69
2021/04/01 11:51:29;;;;;;;2.13;1.15;;;23.30;38.50;;;;;;5069795;28;20032;-68
2021/04/01 11:53:55;;;;;;;2.78;1.35;;;23.30;38.50;;;;;;5081546;28;20019;-70
2021/04/01 11:56:23;;;;;;;3.15;1.50;;;23.30;38.50;;;;;;5079957;28;20538;-68
2021/04/01 11:58:49;;;;;;;2.58;1.27;;;23.30;38.50;;;;;;5089528;28;20042;-69
2021/04/01 12:01:32;;;;;;;2.50;1.38;;;23.30;38.50;;;;;;5088762;28;20106;-69
2021/04/01 12:06:26;;;;;;;2.53;1.40;;;23.30;38.50;;;;;;5083102;28;20035;-69
2021/04/01 12:08:53;;;;;;;3.13;1.45;;;23.30;38.50;;;;;;5082601;28;20040;-69
2021/04/01 12:11:19;;;;;;;2.17;1.35;;;23.30;38.60;;;;;;5081449;28;20023;-68
2021/04/01 12:13:45;;;;;;;2.28;1.30;;;23.40;38.60;;;;;;5069461;28;20028;-71
2021/04/01 12:16:19;;;;;;;2.47;1.20;;;23.40;38.60;;;;;;5082904;28;20032;-71
2021/04/01 12:18:46;;;;;;;1.92;1.20;;;23.30;38.60;;;;;;5084777;28;20417;-71
2021/04/01 12:21:12;;;;;;;2.33;1.20;;;23.40;39.10;;;;;;5064548;28;20166;-69
2021/04/01 12:23:52;;;;;;;2.15;1.15;;;23.40;38.60;;;;;;5084264;28;20663;-68
2021/04/01 12:26:18;;;;;;;3.78;1.38;;;23.40;38.60;;;;;;5083851;28;20020;-69
2021/04/01 12:28:54;;;;;;;3.08;1.20;;;23.40;38.60;;;;;;5082492;28;20478;-69
2021/04/01 12:31:28;;;;;;;2.20;1.20;;;23.40;38.60;;;;;;5058185;28;20857;-70
2021/04/01 12:33:54;;;;;;;2.70;1.23;;;23.40;38.50;;;;;;5082947;28;20485;-70
2021/04/01 12:36:34;;;;;;;1.70;1.13;;;23.40;38.50;;;;;;5074421;28;20052;-71
2021/04/01 12:39:00;;;;;;;2.05;1.20;;;23.40;38.50;;;;;;5075291;28;20032;-70
2021/04/01 12:41:31;;;;;;;2.60;1.15;;;23.40;38.50;;;;;;5095628;28;20024;-69
2021/04/01 12:43:57;;;;;;;2.63;1.52;;;23.40;38.50;;;;;;5089513;28;20039;-69
2021/04/01 12:46:35;;;;;;;3.53;1.52;;;23.40;38.50;;;;;;5094974;28;20028;-69
2021/04/01 12:49:01;;;;;;;2.20;1.20;;;23.40;38.50;;;;;;5062940;28;20024;-69
2021/04/01 12:51:26;;;;;;;3.35;1.30;;;23.40;38.40;;;;;;5089765;28;20016;-70
2021/04/01 12:54:04;;;;;;;2.45;1.20;;;23.40;38.50;;;;;;5070780;28;20202;-69
2021/04/01 12:56:34;;;;;;;2.20;1.20;;;23.40;38.50;;;;;;5081518;28;20028;-71
2021/04/01 12:59:09;;;;;;;2.15;1.13;;;23.40;38.50;;;;;;5079408;28;20032;-70
2021/04/01 13:01:47;;;;;;;1.88;1.05;;;23.50;38.50;;;;;;5076394;28;20039;-71
2021/04/01 13:04:14;;;;;;;2.30;1.10;;;23.50;38.50;;;;;;5088856;28;20377;-71
2021/04/01 13:11:52;;;;;;;3.10;1.20;;;23.50;38.50;;;;;;5079119;28;20017;-71
2021/04/01 13:14:21;;;;;;;2.08;1.02;;;23.50;38.50;;;;;;5056235;28;20042;-70
2021/04/01 13:16:47;;;;;;;1.48;1.02;;;23.50;38.50;;;;;;5082475;28;20752;-70
2021/04/01 13:19:13;;;;;;;3.08;1.40;;;23.50;38.50;;;;;;5087052;28;20934;-71
2021/04/01 13:26:39;;;;;;;2.28;1.20;;;23.50;38.50;;;;;;5077897;28;20032;-69
2021/04/01 13:29:07;;;;;;;2.55;1.30;;;23.50;38.50;;;;;;5087285;28;20080;-71
2021/04/01 13:31:40;;;;;;;1.58;0.90;;;23.50;38.40;;;;;;5074659;28;20032;-70
2021/04/01 13:34:12;;;;;;;3.03;1.10;;;23.50;38.40;;;;;;5085603;28;20427;-71
2021/04/01 13:36:47;;;;;;;1.98;1.10;;;23.50;38.40;;;;;;5066144;28;20031;-69
2021/04/01 13:39:18;;;;;;;1.92;1.10;;;23.50;38.40;;;;;;5086577;28;20549;-70
2021/04/01 13:44:21;;;;;;;1.60;1.08;;;23.50;38.40;;;;;;5079092;28;20374;-70
2021/04/01 13:46:47;;;;;;;1.42;0.90;;;23.50;38.40;;;;;;5079968;28;20020;-69
2021/04/01 13:49:22;;;;;;;1.65;1.10;;;23.50;38.40;;;;;;5076331;28;20095;-69
2021/04/01 13:51:50;;;;;;;1.73;1.10;;;23.60;38.40;;;;;;5073502;28;20024;-70
2021/04/01 13:57:47;;;;;;;1.65;0.90;;;23.60;38.30;;;;;;5072823;28;20082;-69
2021/04/01 14:00:02;;;;;;;1.75;0.98;;;23.60;38.30;;;;;;5057177;28;20044;-69
2021/04/01 14:10:46;;;;;;;1.60;1.00;;;23.60;38.20;;;;;;5082969;28;20074;-75
2021/04/01 14:13:17;;;;;;;2.58;0.98;;;23.60;38.20;;;;;;5077194;28;20074;-75
2021/04/01 14:15:43;;;;;;;1.58;1.00;;;23.60;38.10;;;;;;5081990;28;20415;-76
2021/04/01 14:18:09;;;;;;;1.55;1.00;;;23.60;37.90;;;;;;5077866;28;20032;-75
2021/04/01 14:20:35;;;;;;;2.10;1.00;;;23.60;37.50;;;;;;5078088;28;20050;-75
2021/04/01 14:23:01;;;;;;;2.65;1.10;;;23.60;36.70;;;;;;5063307;28;20162;-76
2021/04/01 14:25:36;;;;;;;2.22;1.10;;;23.60;35.90;;;;;;5062845;28;20139;-74
2021/04/01 14:28:02;;;;;;;3.85;1.23;;;23.60;35.60;;;;;;5051766;28;20464;-78
2021/04/01 14:30:30;;;;;;;2.63;1.38;;;23.60;35.30;;;;;;5073777;28;20028;-74
2021/04/01 14:32:57;;;;;;;3.35;1.30;;;23.60;35.10;;;;;;5072010;28;20057;-76
2021/04/01 14:35:24;;;;;;;5.07;2.13;;;23.60;34.90;;;;;;5083833;28;20020;-75
2021/04/01 14:37:51;;;;;;;2.92;1.40;;;23.60;34.80;;;;;;5074929;28;20129;-74
2021/04/01 14:40:17;;;;;;;4.25;1.50;;;23.60;34.70;;;;;;5080406;28;20035;-74
2021/04/01 14:42:48;;;;;;;2.17;1.27;;;23.60;34.60;;;;;;5082491;28;20477;-72
2021/04/01 14:45:14;;;;;;;2.67;1.48;;;23.60;34.50;;;;;;5061234;28;20117;-73
2021/04/01 14:47:40;;;;;;;3.42;1.40;;;23.60;34.40;;;;;;5079862;28;20078;-73
2021/04/01 14:50:08;;;;;;;3.72;1.30;;;23.60;34.30;;;;;;5080935;28;20039;-71
2021/04/01 14:52:37;;;;;;;2.33;1.20;;;23.60;34.30;;;;;;5066348;28;20174;-72
2021/04/01 14:55:05;;;;;;;2.55;1.35;;;23.60;34.30;;;;;;5063237;28;20054;-71
2021/04/01 14:57:34;;;;;;;2.53;1.40;;;23.60;34.20;;;;;;5066233;28;20055;-72
2021/04/01 15:00:05;;;;;;;2.13;1.17;;;23.60;34.10;;;;;;5079999;28;20032;-72
2021/04/01 15:02:33;;;;;;;4.60;1.30;;;23.60;34.20;;;;;;5076778;28;20308;-73
2021/04/01 15:05:01;;;;;;;3.80;1.30;;;23.60;34.20;;;;;;5083074;28;20060;-71
2021/04/01 15:07:27;;;;;;;3.15;1.38;;;23.60;34.40;;;;;;5085171;28;20032;-72
2021/04/01 15:09:54;;;;;;;2.38;1.38;;;23.60;34.60;;;;;;5079693;28;20103;-71
2021/04/01 15:12:22;;;;;;;4.25;1.40;;;23.60;34.80;;;;;;5083306;28;20522;-72